sensor_id;sensor_type;location;lat;lon;timestamp;pressure;altitude;pressure_sealevel;temperature;humidity
5455;BME280;2750;49.050;9.250;2024-03-17T00:02:28;99552.63;;;9.91;92.98
5455;BME280;2750;49.050;9.250;2024-03-17T00:07:29;99545.97;;;9.83;92.34
5455;BME280;2750;49.050;9.250;2024-03-17T00:12:32;99550.91;;;9.90;91.22
5455;BME280;2750;49.050;9.250;2024-03-17T00:17:34;99551.81;;;9.89;91.89
5455;BME280;2750;49.050;9.250;2024-03-17T00:22:36;99553.78;;;9.81;92.23
5455;BME280;2750;49.050;9.250;2024-03-17T00:27:41;99553.13;;;9.75;93.05
5455;BME280;2750;49.050;9.250;2024-03-17T00:32:45;99544.09;;;9.88;92.50
5455;BME280;2750;49.050;9.250;2024-03-17T00:37:47;99534.13;;;9.76;91.82
5455;BME280;2750;49.050;9.250;2024-03-17T00:42:50;99540.16;;;9.76;91.07
5455;BME280;2750;49.050;9.250;2024-03-17T00:47:54;99531.16;;;9.58;91.91
5455;BME280;2750;49.050;9.250;2024-03-17T00:52:55;99521.97;;;9.50;91.40
5455;BME280;2750;49.050;9.250;2024-03-17T00:57:58;99519.84;;;9.35;93.28
5455;BME280;2750;49.050;9.250;2024-03-17T01:03:00;99512.63;;;9.44;92.50
5455;BME280;2750;49.050;9.250;2024-03-17T01:08:01;99513.38;;;9.48;91.73
5455;BME280;2750;49.050;9.250;2024-03-17T01:13:05;99508.44;;;9.40;92.80
5455;BME280;2750;49.050;9.250;2024-03-17T01:18:07;99502.75;;;9.57;91.75
5455;BME280;2750;49.050;9.250;2024-03-17T01:23:09;99504.81;;;9.46;92.09
5455;BME280;2750;49.050;9.250;2024-03-17T01:28:12;99504.63;;;9.52;91.55
5455;BME280;2750;49.050;9.250;2024-03-17T01:33:14;99496.06;;;9.50;91.28
5455;BME280;2750;49.050;9.250;2024-03-17T01:38:17;99488.44;;;9.45;90.70
5455;BME280;2750;49.050;9.250;2024-03-17T01:43:20;99482.72;;;9.34;91.14
5455;BME280;2750;49.050;9.250;2024-03-17T01:48:22;99482.66;;;9.36;91.05
5455;BME280;2750;49.050;9.250;2024-03-17T01:53:24;99471.75;;;9.26;90.60
5455;BME280;2750;49.050;9.250;2024-03-17T01:58:30;99471.00;;;9.23;90.45
5455;BME280;2750;49.050;9.250;2024-03-17T02:03:31;99466.44;;;9.01;90.99
5455;BME280;2750;49.050;9.250;2024-03-17T02:08:46;99455.50;;;8.92;91.15
5455;BME280;2750;49.050;9.250;2024-03-17T02:13:49;99460.69;;;8.92;91.13
5455;BME280;2750;49.050;9.250;2024-03-17T02:18:54;99445.09;;;8.93;90.82
5455;BME280;2750;49.050;9.250;2024-03-17T02:23:57;99449.41;;;8.94;90.55
5455;BME280;2750;49.050;9.250;2024-03-17T02:28:59;99446.72;;;8.97;91.47
5455;BME280;2750;49.050;9.250;2024-03-17T02:34:01;99440.97;;;8.88;91.97
5455;BME280;2750;49.050;9.250;2024-03-17T02:39:04;99447.53;;;8.99;91.43
5455;BME280;2750;49.050;9.250;2024-03-17T02:44:23;99440.47;;;8.75;91.60
5455;BME280;2750;49.050;9.250;2024-03-17T02:49:24;99443.06;;;8.44;93.77
5455;BME280;2750;49.050;9.250;2024-03-17T02:54:28;99441.88;;;8.56;92.19
5455;BME280;2750;49.050;9.250;2024-03-17T02:59:30;99437.91;;;8.10;93.72
5455;BME280;2750;49.050;9.250;2024-03-17T03:04:32;99437.94;;;8.43;92.87
5455;BME280;2750;49.050;9.250;2024-03-17T03:09:35;99442.28;;;8.41;91.87
5455;BME280;2750;49.050;9.250;2024-03-17T03:14:36;99438.38;;;8.25;91.85
5455;BME280;2750;49.050;9.250;2024-03-17T03:19:38;99437.72;;;8.16;92.75
5455;BME280;2750;49.050;9.250;2024-03-17T03:24:41;99423.81;;;8.22;92.07
5455;BME280;2750;49.050;9.250;2024-03-17T03:29:42;99435.03;;;8.21;91.68
5455;BME280;2750;49.050;9.250;2024-03-17T03:34:44;99418.38;;;8.33;92.16
5455;BME280;2750;49.050;9.250;2024-03-17T03:39:47;99427.16;;;8.26;91.60
5455;BME280;2750;49.050;9.250;2024-03-17T03:44:49;99423.06;;;8.17;91.85
5455;BME280;2750;49.050;9.250;2024-03-17T03:49:51;99424.69;;;8.21;91.02
5455;BME280;2750;49.050;9.250;2024-03-17T03:54:54;99421.72;;;8.04;91.34
5455;BME280;2750;49.050;9.250;2024-03-17T03:59:56;99424.25;;;8.05;91.17
5455;BME280;2750;49.050;9.250;2024-03-17T04:04:57;99427.78;;;8.01;91.30
5455;BME280;2750;49.050;9.250;2024-03-17T04:10:00;99437.31;;;8.01;90.16
5455;BME280;2750;49.050;9.250;2024-03-17T04:15:02;99434.53;;;8.08;90.30
5455;BME280;2750;49.050;9.250;2024-03-17T04:20:07;99438.75;;;8.11;91.24
5455;BME280;2750;49.050;9.250;2024-03-17T04:25:12;99434.44;;;8.11;91.19
5455;BME280;2750;49.050;9.250;2024-03-17T04:30:14;99431.16;;;8.05;90.73
5455;BME280;2750;49.050;9.250;2024-03-17T04:35:16;99433.22;;;7.92;91.42
5455;BME280;2750;49.050;9.250;2024-03-17T04:40:19;99438.97;;;8.03;90.46
5455;BME280;2750;49.050;9.250;2024-03-17T04:45:21;99437.78;;;8.15;91.07
5455;BME280;2750;49.050;9.250;2024-03-17T04:50:22;99434.44;;;8.11;90.58
5455;BME280;2750;49.050;9.250;2024-03-17T04:55:25;99435.63;;;7.98;90.87
5455;BME280;2750;49.050;9.250;2024-03-17T05:00:27;99431.81;;;7.79;90.87
5455;BME280;2750;49.050;9.250;2024-03-17T05:05:29;99437.22;;;7.70;89.59
5455;BME280;2750;49.050;9.250;2024-03-17T05:10:32;99447.44;;;7.39;91.11
5455;BME280;2750;49.050;9.250;2024-03-17T05:15:36;99427.72;;;7.35;91.38
5455;BME280;2750;49.050;9.250;2024-03-17T05:20:38;99432.38;;;7.19;91.56
5455;BME280;2750;49.050;9.250;2024-03-17T05:25:41;99432.28;;;7.24;91.11
5455;BME280;2750;49.050;9.250;2024-03-17T05:30:42;99431.50;;;7.20;91.19
5455;BME280;2750;49.050;9.250;2024-03-17T05:35:48;99433.13;;;7.25;90.93
5455;BME280;2750;49.050;9.250;2024-03-17T05:40:55;99440.59;;;7.37;91.66
5455;BME280;2750;49.050;9.250;2024-03-17T05:45:57;99438.91;;;7.71;91.95
5455;BME280;2750;49.050;9.250;2024-03-17T05:51:00;99439.47;;;7.84;92.80
5455;BME280;2750;49.050;9.250;2024-03-17T05:56:04;99443.06;;;8.10;92.80
5455;BME280;2750;49.050;9.250;2024-03-17T06:01:07;99436.09;;;8.14;92.14
5455;BME280;2750;49.050;9.250;2024-03-17T06:06:09;99434.84;;;8.30;91.78
5455;BME280;2750;49.050;9.250;2024-03-17T06:11:12;99435.63;;;8.32;90.40
5455;BME280;2750;49.050;9.250;2024-03-17T06:16:14;99439.28;;;8.24;90.10
5455;BME280;2750;49.050;9.250;2024-03-17T06:21:15;99438.28;;;8.31;91.33
5455;BME280;2750;49.050;9.250;2024-03-17T06:26:19;99424.75;;;8.52;91.20
5455;BME280;2750;49.050;9.250;2024-03-17T06:31:21;99422.25;;;8.49;91.10
5455;BME280;2750;49.050;9.250;2024-03-17T06:36:23;99406.47;;;8.27;91.44
5455;BME280;2750;49.050;9.250;2024-03-17T06:41:29;99416.06;;;8.22;91.92
5455;BME280;2750;49.050;9.250;2024-03-17T06:46:30;99401.94;;;8.03;92.61
5455;BME280;2750;49.050;9.250;2024-03-17T06:51:32;99409.53;;;8.41;93.66
5455;BME280;2750;49.050;9.250;2024-03-17T06:56:35;99413.50;;;8.84;94.59
5455;BME280;2750;49.050;9.250;2024-03-17T07:01:37;99402.13;;;9.96;95.80
5455;BME280;2750;49.050;9.250;2024-03-17T07:06:39;99393.13;;;12.08;99.15
5455;BME280;2750;49.050;9.250;2024-03-17T07:11:42;99401.25;;;13.53;96.51
5455;BME280;2750;49.050;9.250;2024-03-17T07:16:44;99393.16;;;14.26;84.47
5455;BME280;2750;49.050;9.250;2024-03-17T07:21:46;99391.44;;;15.99;80.92
5455;BME280;2750;49.050;9.250;2024-03-17T07:26:49;99400.91;;;16.73;74.45
5455;BME280;2750;49.050;9.250;2024-03-17T07:31:51;99392.50;;;18.17;72.40
5455;BME280;2750;49.050;9.250;2024-03-17T07:36:52;99391.59;;;19.65;69.40
5455;BME280;2750;49.050;9.250;2024-03-17T07:41:55;99400.28;;;19.18;66.07
5455;BME280;2750;49.050;9.250;2024-03-17T07:46:59;99403.41;;;18.48;68.53
5455;BME280;2750;49.050;9.250;2024-03-17T07:52:15;99400.91;;;18.34;68.58
5455;BME280;2750;49.050;9.250;2024-03-17T07:57:18;99408.34;;;17.22;69.27
5455;BME280;2750;49.050;9.250;2024-03-17T08:02:20;99384.44;;;15.99;72.46
5455;BME280;2750;49.050;9.250;2024-03-17T08:07:22;99395.63;;;16.31;72.08
5455;BME280;2750;49.050;9.250;2024-03-17T08:12:25;99396.94;;;16.24;72.08
5455;BME280;2750;49.050;9.250;2024-03-17T08:17:30;99389.81;;;16.12;72.11
5455;BME280;2750;49.050;9.250;2024-03-17T08:22:31;99374.13;;;16.54;71.02
5455;BME280;2750;49.050;9.250;2024-03-17T08:27:34;99378.22;;;16.87;70.98
5455;BME280;2750;49.050;9.250;2024-03-17T08:32:36;99384.81;;;16.51;72.45
5455;BME280;2750;49.050;9.250;2024-03-17T08:37:37;99380.38;;;16.09;75.38
5455;BME280;2750;49.050;9.250;2024-03-17T08:42:40;99390.19;;;16.06;75.26
5455;BME280;2750;49.050;9.250;2024-03-17T08:47:42;99392.31;;;15.69;76.90
5455;BME280;2750;49.050;9.250;2024-03-17T08:52:43;99361.31;;;15.32;78.02
5455;BME280;2750;49.050;9.250;2024-03-17T08:57:46;99383.19;;;15.45;79.32
5455;BME280;2750;49.050;9.250;2024-03-17T09:02:48;99368.47;;;16.04;76.23
5455;BME280;2750;49.050;9.250;2024-03-17T09:07:49;99365.00;;;15.59;79.98
5455;BME280;2750;49.050;9.250;2024-03-17T09:12:52;99366.25;;;16.54;75.86
5455;BME280;2750;49.050;9.250;2024-03-17T09:17:54;99367.28;;;17.21;73.91
5455;BME280;2750;49.050;9.250;2024-03-17T09:22:56;99354.13;;;18.14;70.84
5455;BME280;2750;49.050;9.250;2024-03-17T09:27:59;99353.91;;;18.68;70.40
5455;BME280;2750;49.050;9.250;2024-03-17T09:33:00;99342.72;;;19.37;68.44
5455;BME280;2750;49.050;9.250;2024-03-17T09:38:03;99351.53;;;19.01;66.40
5455;BME280;2750;49.050;9.250;2024-03-17T09:43:08;99343.47;;;19.63;66.90
5455;BME280;2750;49.050;9.250;2024-03-17T09:48:14;99346.91;;;19.52;65.57
5455;BME280;2750;49.050;9.250;2024-03-17T09:53:24;99350.78;;;20.05;67.26
5455;BME280;2750;49.050;9.250;2024-03-17T09:58:27;99347.25;;;20.28;67.15
5455;BME280;2750;49.050;9.250;2024-03-17T10:03:39;99339.56;;;19.79;66.54
5455;BME280;2750;49.050;9.250;2024-03-17T10:08:45;99344.84;;;20.36;65.53
5455;BME280;2750;49.050;9.250;2024-03-17T10:14:00;99343.38;;;20.21;70.30
5455;BME280;2750;49.050;9.250;2024-03-17T10:19:08;99343.06;;;20.70;67.61
5455;BME280;2750;49.050;9.250;2024-03-17T10:24:11;99326.50;;;20.79;66.20
5455;BME280;2750;49.050;9.250;2024-03-17T10:29:23;99331.72;;;21.24;65.68
5455;BME280;2750;49.050;9.250;2024-03-17T10:34:26;99322.91;;;21.87;61.91
5455;BME280;2750;49.050;9.250;2024-03-17T10:39:29;99318.72;;;21.64;61.04
5455;BME280;2750;49.050;9.250;2024-03-17T10:44:35;99329.97;;;21.66;60.15
5455;BME280;2750;49.050;9.250;2024-03-17T10:49:37;99329.34;;;21.73;59.42
5455;BME280;2750;49.050;9.250;2024-03-17T10:54:40;99332.13;;;21.72;57.31
5455;BME280;2750;49.050;9.250;2024-03-17T10:59:50;99332.16;;;20.52;56.61
5455;BME280;2750;49.050;9.250;2024-03-17T11:04:52;99339.59;;;21.35;56.43
5455;BME280;2750;49.050;9.250;2024-03-17T11:09:55;99330.50;;;21.91;54.15
5455;BME280;2750;49.050;9.250;2024-03-17T11:20:36;99322.91;;;20.91;57.06
5455;BME280;2750;49.050;9.250;2024-03-17T11:25:41;99317.28;;;20.51;57.46
5455;BME280;2750;49.050;9.250;2024-03-17T11:30:43;99300.38;;;20.76;56.92
5455;BME280;2750;49.050;9.250;2024-03-17T11:35:50;99303.47;;;20.81;57.89
5455;BME280;2750;49.050;9.250;2024-03-17T11:40:52;99296.94;;;21.08;56.63
5455;BME280;2750;49.050;9.250;2024-03-17T11:45:54;99287.13;;;21.41;56.65
5455;BME280;2750;49.050;9.250;2024-03-17T11:50:58;99279.59;;;20.83;55.68
5455;BME280;2750;49.050;9.250;2024-03-17T11:56:00;99277.13;;;19.46;57.22
5455;BME280;2750;49.050;9.250;2024-03-17T12:01:04;99259.50;;;19.93;57.74
5455;BME280;2750;49.050;9.250;2024-03-17T12:06:12;99258.63;;;21.24;57.18
5455;BME280;2750;49.050;9.250;2024-03-17T12:11:17;99255.28;;;22.05;54.09
5455;BME280;2750;49.050;9.250;2024-03-17T12:16:22;99254.31;;;22.36;54.62
5455;BME280;2750;49.050;9.250;2024-03-17T12:21:24;99248.81;;;22.19;53.82
5455;BME280;2750;49.050;9.250;2024-03-17T12:26:26;99250.34;;;22.61;53.58
5455;BME280;2750;49.050;9.250;2024-03-17T12:31:28;99254.16;;;21.57;56.70
5455;BME280;2750;49.050;9.250;2024-03-17T12:36:31;99233.03;;;22.88;53.69
5455;BME280;2750;49.050;9.250;2024-03-17T12:41:32;99237.19;;;23.57;52.20
5455;BME280;2750;49.050;9.250;2024-03-17T12:46:34;99233.38;;;21.31;54.89
5455;BME280;2750;49.050;9.250;2024-03-17T12:51:39;99225.66;;;21.39;56.22
5455;BME280;2750;49.050;9.250;2024-03-17T12:56:42;99226.44;;;21.30;55.67
5455;BME280;2750;49.050;9.250;2024-03-17T13:02:01;99211.44;;;19.56;57.62
5455;BME280;2750;49.050;9.250;2024-03-17T13:07:10;99210.53;;;21.10;56.91
5455;BME280;2750;49.050;9.250;2024-03-17T13:12:14;99207.31;;;21.89;55.67
5455;BME280;2750;49.050;9.250;2024-03-17T13:17:16;99203.56;;;20.34;57.93
5455;BME280;2750;49.050;9.250;2024-03-17T13:22:20;99205.81;;;19.72;59.16
5455;BME280;2750;49.050;9.250;2024-03-17T13:27:22;99213.13;;;18.98;59.39
5455;BME280;2750;49.050;9.250;2024-03-17T13:32:23;99195.84;;;18.83;59.66
5455;BME280;2750;49.050;9.250;2024-03-17T13:37:26;99197.69;;;18.46;61.18
5455;BME280;2750;49.050;9.250;2024-03-17T13:42:28;99197.94;;;18.91;60.32
5455;BME280;2750;49.050;9.250;2024-03-17T13:47:29;99199.56;;;19.04;60.24
5455;BME280;2750;49.050;9.250;2024-03-17T13:52:32;99192.97;;;19.45;59.03
5455;BME280;2750;49.050;9.250;2024-03-17T13:57:34;99179.50;;;19.72;58.58
5455;BME280;2750;49.050;9.250;2024-03-17T14:02:36;99171.81;;;20.35;57.67
5455;BME280;2750;49.050;9.250;2024-03-17T14:07:39;99177.91;;;20.14;57.52
5455;BME280;2750;49.050;9.250;2024-03-17T14:12:40;99162.69;;;19.39;57.83
5455;BME280;2750;49.050;9.250;2024-03-17T14:17:44;99148.38;;;19.54;58.18
5455;BME280;2750;49.050;9.250;2024-03-17T14:22:47;99143.22;;;19.42;58.57
5455;BME280;2750;49.050;9.250;2024-03-17T14:27:53;99143.41;;;20.17;57.39
5455;BME280;2750;49.050;9.250;2024-03-17T14:32:55;99148.28;;;19.32;58.52
5455;BME280;2750;49.050;9.250;2024-03-17T14:37:58;99138.31;;;19.60;57.86
5455;BME280;2750;49.050;9.250;2024-03-17T14:42:59;99132.66;;;19.86;57.97
5455;BME280;2750;49.050;9.250;2024-03-17T14:48:03;99145.72;;;19.99;58.24
5455;BME280;2750;49.050;9.250;2024-03-17T14:53:06;99125.06;;;20.37;57.03
5455;BME280;2750;49.050;9.250;2024-03-17T14:58:08;99113.06;;;20.44;56.96
5455;BME280;2750;49.050;9.250;2024-03-17T15:03:10;99116.31;;;20.26;57.72
5455;BME280;2750;49.050;9.250;2024-03-17T15:08:13;99114.59;;;20.79;55.66
5455;BME280;2750;49.050;9.250;2024-03-17T15:13:14;99107.81;;;21.38;55.02
5455;BME280;2750;49.050;9.250;2024-03-17T15:18:16;99106.22;;;20.74;56.34
5455;BME280;2750;49.050;9.250;2024-03-17T15:23:19;99105.41;;;20.73;56.07
5455;BME280;2750;49.050;9.250;2024-03-17T15:28:20;99110.16;;;20.47;56.64
5455;BME280;2750;49.050;9.250;2024-03-17T15:33:22;99110.72;;;20.30;56.37
5455;BME280;2750;49.050;9.250;2024-03-17T15:38:25;99103.44;;;20.12;57.36
5455;BME280;2750;49.050;9.250;2024-03-17T15:43:27;99100.19;;;20.19;57.24
5455;BME280;2750;49.050;9.250;2024-03-17T15:48:32;99107.16;;;19.31;58.68
5455;BME280;2750;49.050;9.250;2024-03-17T15:53:35;99101.84;;;20.31;57.22
5455;BME280;2750;49.050;9.250;2024-03-17T15:58:36;99085.22;;;20.51;56.92
5455;BME280;2750;49.050;9.250;2024-03-17T16:03:40;99090.72;;;20.80;56.62
5455;BME280;2750;49.050;9.250;2024-03-17T16:08:44;99095.34;;;20.35;56.10
5455;BME280;2750;49.050;9.250;2024-03-17T16:13:47;99097.84;;;19.61;57.49
5455;BME280;2750;49.050;9.250;2024-03-17T16:18:48;99095.28;;;18.21;60.23
5455;BME280;2750;49.050;9.250;2024-03-17T16:23:55;99091.19;;;18.17;60.31
5455;BME280;2750;49.050;9.250;2024-03-17T16:28:59;99091.00;;;17.84;61.21
5455;BME280;2750;49.050;9.250;2024-03-17T16:34:01;99079.16;;;17.40;62.42
5455;BME280;2750;49.050;9.250;2024-03-17T16:39:05;99079.94;;;17.04;63.21
5455;BME280;2750;49.050;9.250;2024-03-17T16:44:13;99074.56;;;16.81;64.11
5455;BME280;2750;49.050;9.250;2024-03-17T16:49:18;99070.19;;;16.94;64.91
5455;BME280;2750;49.050;9.250;2024-03-17T16:54:23;99071.59;;;16.72;65.06
5455;BME280;2750;49.050;9.250;2024-03-17T16:59:24;99069.06;;;16.58;65.91
5455;BME280;2750;49.050;9.250;2024-03-17T17:04:26;99074.97;;;16.08;67.70
5455;BME280;2750;49.050;9.250;2024-03-17T17:09:29;99074.13;;;16.08;68.90
5455;BME280;2750;49.050;9.250;2024-03-17T17:14:31;99065.91;;;16.00;69.62
5455;BME280;2750;49.050;9.250;2024-03-17T17:19:37;99064.84;;;15.75;69.66
5455;BME280;2750;49.050;9.250;2024-03-17T17:24:41;99064.88;;;15.61;70.68
5455;BME280;2750;49.050;9.250;2024-03-17T17:29:43;99061.88;;;15.39;71.06
5455;BME280;2750;49.050;9.250;2024-03-17T17:34:45;99072.59;;;15.06;72.04
5455;BME280;2750;49.050;9.250;2024-03-17T17:39:49;99053.38;;;15.36;71.75
5455;BME280;2750;49.050;9.250;2024-03-17T17:44:50;99067.47;;;15.47;70.75
5455;BME280;2750;49.050;9.250;2024-03-17T17:49:52;99065.25;;;15.69;71.04
5455;BME280;2750;49.050;9.250;2024-03-17T17:54:55;99067.47;;;15.47;70.86
5455;BME280;2750;49.050;9.250;2024-03-17T17:59:57;99074.41;;;15.62;70.88
5455;BME280;2750;49.050;9.250;2024-03-17T18:04:58;99066.56;;;15.62;71.37
5455;BME280;2750;49.050;9.250;2024-03-17T18:10:02;99069.38;;;15.59;71.42
5455;BME280;2750;49.050;9.250;2024-03-17T18:15:04;99071.81;;;15.62;70.59
5455;BME280;2750;49.050;9.250;2024-03-17T18:20:06;99065.16;;;15.71;71.23
5455;BME280;2750;49.050;9.250;2024-03-17T18:25:11;99065.03;;;15.87;70.13
5455;BME280;2750;49.050;9.250;2024-03-17T18:30:13;99061.81;;;15.96;70.42
5455;BME280;2750;49.050;9.250;2024-03-17T18:35:15;99065.59;;;15.77;72.31
5455;BME280;2750;49.050;9.250;2024-03-17T18:40:18;99068.09;;;15.52;73.46
5455;BME280;2750;49.050;9.250;2024-03-17T18:45:20;99070.88;;;15.49;74.06
5455;BME280;2750;49.050;9.250;2024-03-17T18:50:21;99068.50;;;15.45;73.18
5455;BME280;2750;49.050;9.250;2024-03-17T18:55:24;99080.38;;;15.36;72.74
5455;BME280;2750;49.050;9.250;2024-03-17T19:00:26;99082.25;;;15.20;73.17
5455;BME280;2750;49.050;9.250;2024-03-17T19:05:30;99079.44;;;15.23;73.08
5455;BME280;2750;49.050;9.250;2024-03-17T19:10:34;99091.19;;;15.30;72.73
5455;BME280;2750;49.050;9.250;2024-03-17T19:15:35;99076.56;;;15.13;74.34
5455;BME280;2750;49.050;9.250;2024-03-17T19:20:37;99088.84;;;14.97;75.13
5455;BME280;2750;49.050;9.250;2024-03-17T19:25:40;99089.13;;;14.93;75.79
5455;BME280;2750;49.050;9.250;2024-03-17T19:30:41;99076.91;;;14.93;75.10
5455;BME280;2750;49.050;9.250;2024-03-17T19:35:50;99071.00;;;14.75;75.60
5455;BME280;2750;49.050;9.250;2024-03-17T19:40:54;99071.25;;;14.71;75.21
5455;BME280;2750;49.050;9.250;2024-03-17T19:46:00;99059.19;;;14.54;75.38
5455;BME280;2750;49.050;9.250;2024-03-17T19:51:07;99067.94;;;14.53;75.66
5455;BME280;2750;49.050;9.250;2024-03-17T19:56:14;99061.19;;;14.49;75.64
5455;BME280;2750;49.050;9.250;2024-03-17T20:01:16;99056.53;;;14.40;76.08
5455;BME280;2750;49.050;9.250;2024-03-17T20:06:19;99064.66;;;14.34;77.19
5455;BME280;2750;49.050;9.250;2024-03-17T20:11:23;99059.75;;;14.14;77.86
5455;BME280;2750;49.050;9.250;2024-03-17T20:16:26;99048.69;;;13.95;78.08
5455;BME280;2750;49.050;9.250;2024-03-17T20:21:31;99041.78;;;13.62;78.49
5455;BME280;2750;49.050;9.250;2024-03-17T20:26:34;99045.44;;;13.27;80.14
5455;BME280;2750;49.050;9.250;2024-03-17T20:31:37;99042.94;;;13.08;80.57
5455;BME280;2750;49.050;9.250;2024-03-17T20:36:41;99035.06;;;12.92;80.42
5455;BME280;2750;49.050;9.250;2024-03-17T20:41:44;99026.28;;;13.28;79.48
5455;BME280;2750;49.050;9.250;2024-03-17T20:46:45;99025.63;;;13.40;79.15
5455;BME280;2750;49.050;9.250;2024-03-17T20:51:48;99029.03;;;13.25;80.19
5455;BME280;2750;49.050;9.250;2024-03-17T20:56:50;99020.31;;;13.26;79.84
5455;BME280;2750;49.050;9.250;2024-03-17T21:01:52;99033.09;;;13.46;79.10
5455;BME280;2750;49.050;9.250;2024-03-17T21:06:53;99028.91;;;13.59;79.32
5455;BME280;2750;49.050;9.250;2024-03-17T21:11:56;99024.53;;;13.60;79.20
5455;BME280;2750;49.050;9.250;2024-03-17T21:16:59;99017.22;;;13.66;79.16
5455;BME280;2750;49.050;9.250;2024-03-17T21:22:01;99008.47;;;13.67;79.68
5455;BME280;2750;49.050;9.250;2024-03-17T21:27:04;98996.19;;;13.54;80.30
5455;BME280;2750;49.050;9.250;2024-03-17T21:32:06;98994.91;;;13.61;81.14
5455;BME280;2750;49.050;9.250;2024-03-17T21:37:07;98999.72;;;13.53;81.70
5455;BME280;2750;49.050;9.250;2024-03-17T21:42:10;98998.03;;;13.67;81.35
5455;BME280;2750;49.050;9.250;2024-03-17T21:47:13;98995.50;;;13.66;81.03
5455;BME280;2750;49.050;9.250;2024-03-17T21:52:15;98982.66;;;13.47;82.03
5455;BME280;2750;49.050;9.250;2024-03-17T21:57:19;98978.09;;;13.66;81.44
5455;BME280;2750;49.050;9.250;2024-03-17T22:02:20;98966.81;;;13.81;81.38
5455;BME280;2750;49.050;9.250;2024-03-17T22:07:22;98969.34;;;13.83;80.84
5455;BME280;2750;49.050;9.250;2024-03-17T22:12:25;98957.81;;;13.71;81.52
5455;BME280;2750;49.050;9.250;2024-03-17T22:17:27;98958.84;;;13.53;81.59
5455;BME280;2750;49.050;9.250;2024-03-17T22:22:30;98957.19;;;13.52;82.14
5455;BME280;2750;49.050;9.250;2024-03-17T22:27:32;98943.97;;;13.39;82.75
5455;BME280;2750;49.050;9.250;2024-03-17T22:32:34;98945.91;;;13.36;83.16
5455;BME280;2750;49.050;9.250;2024-03-17T22:37:35;98942.69;;;13.31;83.55
5455;BME280;2750;49.050;9.250;2024-03-17T22:42:38;98944.03;;;13.38;83.50
5455;BME280;2750;49.050;9.250;2024-03-17T22:47:40;98943.31;;;13.36;84.42
5455;BME280;2750;49.050;9.250;2024-03-17T22:52:41;98934.47;;;13.23;85.22
5455;BME280;2750;49.050;9.250;2024-03-17T22:57:44;98933.78;;;13.35;85.24
5455;BME280;2750;49.050;9.250;2024-03-17T23:02:46;98929.59;;;13.48;84.50
5455;BME280;2750;49.050;9.250;2024-03-17T23:07:47;98924.38;;;13.48;83.91
5455;BME280;2750;49.050;9.250;2024-03-17T23:12:50;98926.03;;;13.49;83.94
5455;BME280;2750;49.050;9.250;2024-03-17T23:17:52;98931.09;;;13.52;83.56
5455;BME280;2750;49.050;9.250;2024-03-17T23:22:54;98919.66;;;13.55;83.75
5455;BME280;2750;49.050;9.250;2024-03-17T23:27:57;98923.28;;;13.52;83.51
5455;BME280;2750;49.050;9.250;2024-03-17T23:32:59;98921.81;;;13.62;83.61
5455;BME280;2750;49.050;9.250;2024-03-17T23:38:02;98917.38;;;13.64;83.68
5455;BME280;2750;49.050;9.250;2024-03-17T23:43:05;98914.84;;;13.63;83.67
5455;BME280;2750;49.050;9.250;2024-03-17T23:48:07;98916.25;;;13.68;83.09
5455;BME280;2750;49.050;9.250;2024-03-17T23:53:08;98910.41;;;13.49;83.43
5455;BME280;2750;49.050;9.250;2024-03-17T23:58:11;98907.50;;;13.69;83.41
